Airfield :
LOGIN :

Register | Disclaimer

   EN    FR    IT 

 










Legend :    VFR   Marginal VFR   IFR   Intensive IFR   Very Intensive IFR
Visi :
Ceiling :
>= 8 km
>= 3000ft
5 to 8 km
1000 to 3000 ft
1500m to 5 km
500 to 1000 ft
800 to 1500m
200 to 500 ft
< 800m
< 200 ft
Symbols :   Thunderstorms  Fog  Heavy snow  Heavy precipitations  Wind > 20 kt
SIGMETs :     Misc.  Thunderstorms  Icing  Turbulence  Mountain Waves  Volcanic Ashes






- Airport Elevation : 82 ft
- IATA code : AAR


EKAH - Aarhus Tirstrup

CURRENT METAR :
  • 151520Z 26022G37KT 220V280 9999 BKN016 06/03 Q0984

EXPIRED METARs :
  • 151450Z 24013G26KT 190V270 9999 FEW015 BKN019 06/04 Q0982
  • 151420Z 22011G25KT 180V270 9999 BKN019 06/04 Q0981
  • 151350Z AUTO 22010G20KT 140V260 9000NDV -SHRA BKN019/// 06/04 Q0981
  • 151320Z AUTO 20008G19KT 150V280 9999NDV -SHRA BKN020/// 05/04 Q0981
  • 151250Z AUTO 22010G26KT 170V260 9999NDV -SHRA BKN018/// 05/03 Q0982

TAF TAF EKAH
Valid from the 15 at 12:00 until the 16 at 12:00 UTC


151113Z 1512/1612 20018G32KT 9999 BKN025
BECMG 1512/1515 23020G38KT
TEMPO 1512/1524 4000 SHRA BKN012 BKN020CB
BECMG 1515/1518 27018G30KT
BECMG 1518/1521 23010KT
TEMPO 1607/1612 4000 -SHRA BR BKN008 BKN020CB



MET'MAP, your aeronautical weather chart ! - Copyright ORBIFLY December 2007 - Disclaimer

ORBIFLY MET'MAP TEAM :

Programming & Development : Alexandra Zaïnal
Concept & original design : Baudouin d'Aumeries
Assistance for programming : Marc-Olivier Méhu
Technical & hardware support : Manuel Goepfert

Contact : metmap@orbifly.com




SOURCES & CREDITS :

   NOAA